Anantapur, India
Current Conditions -  °F | °C
As of 7:30 PM on Saturday 22 Nov 2014 (Local Time) from VOBL Reporting Station
Scattered Clouds Scattered Clouds  
Wind Chill: 79°   Ceiling: Unl
Heat Index: 82°   Visibility: 5mi
Dew Point: 73°   Wind: 5mph
Humidity: 83%   Direction: 100°E
Pressure: 30.03"   Gusts: NA
Location:  14.68°N, 77.62°E
Report Text: VOBL 221430Z 10004KT 8000 SCT015 SCT080 26/23 Q1017 NOSIG
Loading
Personal Weather Stations






























Interactive Weather Map New forecast layout! Learn more

10-Day Weather Forecast

Advertisements
Track Severe Weather on mobile